createdAt,value
2023-05-11T00:00:13.741Z,21.52
2023-05-11T00:01:13.769Z,21.50
2023-05-11T00:02:13.873Z,21.52
2023-05-11T00:03:14.031Z,21.51
2023-05-11T00:04:12.885Z,21.51
2023-05-11T00:05:13.847Z,21.51
2023-05-11T00:06:13.856Z,21.50
2023-05-11T00:07:13.875Z,21.50
2023-05-11T00:08:14.948Z,21.50
2023-05-11T00:09:13.878Z,21.50
2023-05-11T00:10:13.829Z,21.49
2023-05-11T00:11:12.870Z,21.50
2023-05-11T00:12:12.828Z,21.50
2023-05-11T00:13:12.811Z,21.49
2023-05-11T00:14:13.845Z,21.49
2023-05-11T00:15:13.896Z,21.49
2023-05-11T00:16:13.837Z,21.49
2023-05-11T00:17:13.795Z,21.49
2023-05-11T00:18:13.798Z,21.48
2023-05-11T00:19:13.777Z,21.49
2023-05-11T00:20:12.788Z,21.48
2023-05-11T00:21:12.760Z,21.48
2023-05-11T00:22:13.754Z,21.48
2023-05-11T00:23:12.740Z,21.48
2023-05-11T00:24:13.740Z,21.47
2023-05-11T00:25:12.721Z,21.48
2023-05-11T00:26:13.725Z,21.48
2023-05-11T00:27:13.723Z,21.48
2023-05-11T00:28:13.708Z,21.47
2023-05-11T00:29:13.695Z,21.47
2023-05-11T00:30:13.690Z,21.47
2023-05-11T00:31:13.688Z,21.47
2023-05-11T00:32:12.645Z,21.47
2023-05-11T00:33:12.644Z,21.47
2023-05-11T00:34:13.633Z,21.47
2023-05-11T00:35:12.627Z,21.47
2023-05-11T00:36:12.613Z,21.46
2023-05-11T00:37:12.616Z,21.46
2023-05-11T00:38:12.722Z,21.46
2023-05-11T00:39:13.599Z,21.46
2023-05-11T00:40:13.578Z,21.46
2023-05-11T00:41:12.604Z,21.46
2023-05-11T00:42:13.566Z,21.45
2023-05-11T00:43:13.608Z,21.46
2023-05-11T00:44:12.564Z,21.45
2023-05-11T00:45:13.555Z,21.45
2023-05-11T00:46:13.559Z,21.45
2023-05-11T00:47:12.575Z,21.45
2023-05-11T00:48:13.533Z,21.45
2023-05-11T00:49:13.536Z,21.45
2023-05-11T00:50:12.521Z,21.44
2023-05-11T00:51:12.512Z,21.45
2023-05-11T00:52:13.502Z,21.44
2023-05-11T00:53:13.491Z,21.44
2023-05-11T00:54:12.495Z,21.44
2023-05-11T00:55:13.507Z,21.44
2023-05-11T00:56:12.484Z,21.44
2023-05-11T00:57:13.463Z,21.44
2023-05-11T00:58:13.459Z,21.43
2023-05-11T00:59:13.486Z,21.44
2023-05-11T01:00:12.459Z,21.43
2023-05-11T01:01:13.499Z,21.42
2023-05-11T01:02:13.498Z,21.42
2023-05-11T01:03:13.486Z,21.42
2023-05-11T01:04:13.428Z,21.43
2023-05-11T01:05:13.405Z,21.42
2023-05-11T01:06:13.404Z,21.42
2023-05-11T01:07:13.396Z,21.43
2023-05-11T01:08:13.393Z,21.42
2023-05-11T01:09:13.412Z,21.42
2023-05-11T01:10:13.381Z,21.41
2023-05-11T01:11:13.388Z,21.42
2023-05-11T01:12:12.367Z,21.42
2023-05-11T01:13:12.345Z,21.41
2023-05-11T01:14:13.356Z,21.42
2023-05-11T01:15:13.381Z,21.41
2023-05-11T01:16:13.408Z,21.41
2023-05-11T01:17:12.333Z,21.41
2023-05-11T01:18:12.362Z,21.41
2023-05-11T01:19:12.439Z,21.41
2023-05-11T01:20:13.324Z,21.41
2023-05-11T01:21:13.313Z,21.40
2023-05-11T01:22:13.285Z,21.40
2023-05-11T01:23:13.285Z,21.40
2023-05-11T01:24:12.309Z,21.39
2023-05-11T01:25:13.309Z,21.40
2023-05-11T01:26:13.328Z,21.39
2023-05-11T01:27:13.317Z,21.40
2023-05-11T01:28:13.332Z,21.40
2023-05-11T01:29:13.354Z,21.40
2023-05-11T01:30:12.368Z,21.40
2023-05-11T01:31:12.396Z,21.39
2023-05-11T01:32:12.447Z,21.38
2023-05-11T01:33:12.543Z,21.39
2023-05-11T01:34:13.409Z,21.39
2023-05-11T01:35:13.409Z,21.38
2023-05-11T01:36:13.434Z,21.38
2023-05-11T01:37:13.424Z,21.38
2023-05-11T01:38:12.416Z,21.38
2023-05-11T01:39:12.457Z,21.38
2023-05-11T01:40:12.446Z,21.38
2023-05-11T01:41:13.457Z,21.38
2023-05-11T01:42:13.463Z,21.37
2023-05-11T01:43:12.453Z,21.37
2023-05-11T01:44:12.470Z,21.38
2023-05-11T01:45:13.472Z,21.37
2023-05-11T01:46:13.492Z,21.37
2023-05-11T01:47:13.508Z,21.37
2023-05-11T01:48:12.491Z,21.36
2023-05-11T01:49:13.522Z,21.36
2023-05-11T01:50:13.550Z,21.37
2023-05-11T01:51:13.507Z,21.37
2023-05-11T01:52:13.520Z,21.37
2023-05-11T01:53:13.517Z,21.36
2023-05-11T01:54:12.524Z,21.36
2023-05-11T01:55:13.550Z,21.36
2023-05-11T01:56:13.554Z,21.36
2023-05-11T01:57:12.554Z,21.36
2023-05-11T01:58:13.572Z,21.36
2023-05-11T01:59:13.596Z,21.36
2023-05-11T02:00:13.602Z,21.36
2023-05-11T02:01:13.684Z,21.36
2023-05-11T02:02:12.659Z,21.36
2023-05-11T02:03:13.725Z,21.35
2023-05-11T02:04:13.666Z,21.35
2023-05-11T02:05:12.650Z,21.35
2023-05-11T02:06:13.691Z,21.35
2023-05-11T02:07:12.670Z,21.35
2023-05-11T02:08:13.703Z,21.34
2023-05-11T02:09:12.731Z,21.35
2023-05-11T02:10:13.747Z,21.33
2023-05-11T02:11:13.725Z,21.33
2023-05-11T02:12:12.725Z,21.34
2023-05-11T02:13:13.756Z,21.34
2023-05-11T02:14:13.756Z,21.34
2023-05-11T02:15:13.810Z,21.34
2023-05-11T02:16:13.825Z,21.33
2023-05-11T02:17:12.801Z,21.33
2023-05-11T02:18:13.808Z,21.33
2023-05-11T02:19:13.854Z,21.33
2023-05-11T02:20:13.812Z,21.33
2023-05-11T02:21:13.822Z,21.32
2023-05-11T02:22:12.843Z,21.32
2023-05-11T02:23:12.895Z,21.32
2023-05-11T02:24:12.878Z,21.32
2023-05-11T02:25:13.914Z,21.32
2023-05-11T02:26:13.920Z,21.32
2023-05-11T02:27:12.969Z,21.32
2023-05-11T02:28:13.940Z,21.31
2023-05-11T02:29:13.933Z,21.31
2023-05-11T02:30:13.957Z,21.31
2023-05-11T02:31:14.010Z,21.31
2023-05-11T02:32:13.982Z,21.31
2023-05-11T02:33:13.985Z,21.32
2023-05-11T02:34:14.013Z,21.31
2023-05-11T02:35:13.084Z,21.30
2023-05-11T02:36:13.041Z,21.30
2023-05-11T02:37:13.077Z,21.30
2023-05-11T02:38:13.084Z,21.30
2023-05-11T02:39:14.107Z,21.30
2023-05-11T02:40:13.107Z,21.30
2023-05-11T02:41:13.133Z,21.30
2023-05-11T02:42:14.159Z,21.29
2023-05-11T02:43:13.164Z,21.30
2023-05-11T02:44:14.176Z,21.29
2023-05-11T02:45:13.207Z,21.30
2023-05-11T02:46:14.240Z,21.29
2023-05-11T02:47:14.245Z,21.29
2023-05-11T02:48:14.241Z,21.30
2023-05-11T02:49:14.296Z,21.30
2023-05-11T02:50:14.286Z,21.29
2023-05-11T02:51:13.311Z,21.29
2023-05-11T02:52:14.310Z,21.29
2023-05-11T02:53:14.318Z,21.29
2023-05-11T02:54:14.386Z,21.29
2023-05-11T02:55:13.342Z,21.29
2023-05-11T02:56:14.350Z,21.28
2023-05-11T02:57:14.386Z,21.28
2023-05-11T02:58:14.423Z,21.27
2023-05-11T02:59:13.443Z,21.28
2023-05-11T03:00:13.465Z,21.28
2023-05-11T03:01:14.555Z,21.28
2023-05-11T03:02:14.581Z,21.28
2023-05-11T03:03:13.641Z,21.28
2023-05-11T03:04:13.591Z,21.27
2023-05-11T03:05:14.602Z,21.28
2023-05-11T03:06:15.225Z,21.27
2023-05-11T03:07:14.666Z,21.27
2023-05-11T03:08:13.679Z,21.27
2023-05-11T03:09:14.697Z,21.27
2023-05-11T03:10:13.712Z,21.26
2023-05-11T03:11:13.718Z,21.27
2023-05-11T03:12:13.734Z,21.26
2023-05-11T03:13:13.740Z,21.27
2023-05-11T03:14:14.765Z,21.26
2023-05-11T03:15:14.800Z,21.27
2023-05-11T03:16:14.806Z,21.26
2023-05-11T03:17:14.813Z,21.26
2023-05-11T03:18:13.839Z,21.26
2023-05-11T03:19:14.846Z,21.26
2023-05-11T03:20:14.966Z,21.26
2023-05-11T03:21:14.913Z,21.26
2023-05-11T03:22:14.907Z,21.26
2023-05-11T03:23:13.927Z,21.25
2023-05-11T03:24:14.930Z,21.25
2023-05-11T03:25:14.967Z,21.25
2023-05-11T03:26:14.978Z,21.25
2023-05-11T03:27:13.948Z,21.24
2023-05-11T03:28:14.963Z,21.24
2023-05-11T03:29:14.011Z,21.24
2023-05-11T03:30:14.004Z,21.25
2023-05-11T03:31:14.039Z,21.25
2023-05-11T03:32:14.092Z,21.25
2023-05-11T03:33:15.046Z,21.24
2023-05-11T03:34:14.057Z,21.24
2023-05-11T03:35:14.069Z,21.24
2023-05-11T03:36:15.068Z,21.24
2023-05-11T03:37:15.079Z,21.24
2023-05-11T03:38:14.094Z,21.24
2023-05-11T03:39:14.127Z,21.24
2023-05-11T03:40:14.075Z,21.23
2023-05-11T03:41:15.092Z,21.23
2023-05-11T03:42:15.095Z,21.24
2023-05-11T03:43:15.116Z,21.23
2023-05-11T03:44:15.125Z,21.22
2023-05-11T03:45:14.118Z,21.22
2023-05-11T03:46:14.135Z,21.23
2023-05-11T03:47:15.137Z,21.23
2023-05-11T03:48:14.177Z,21.22
2023-05-11T03:49:15.179Z,21.21
2023-05-11T03:50:15.252Z,21.22
2023-05-11T03:51:15.222Z,21.22
2023-05-11T03:52:15.229Z,21.22
2023-05-11T03:53:15.240Z,21.21
2023-05-11T03:54:15.249Z,21.23
2023-05-11T03:55:14.365Z,21.23
2023-05-11T03:56:15.306Z,21.21
2023-05-11T03:57:14.293Z,21.21
2023-05-11T03:58:15.336Z,21.20
2023-05-11T03:59:15.311Z,21.20
2023-05-11T04:00:15.391Z,21.20
2023-05-11T04:01:15.314Z,21.21
2023-05-11T04:02:15.314Z,21.20
2023-05-11T04:03:15.446Z,21.20
2023-05-11T04:04:14.431Z,21.20
2023-05-11T04:05:14.321Z,21.20
2023-05-11T04:06:15.371Z,21.19
2023-05-11T04:07:14.405Z,21.20
2023-05-11T04:08:15.447Z,21.19
2023-05-11T04:09:14.481Z,21.19
2023-05-11T04:10:14.489Z,21.19
2023-05-11T04:11:15.500Z,21.19
2023-05-11T04:12:15.486Z,21.19
2023-05-11T04:13:15.476Z,21.19
2023-05-11T04:14:15.483Z,21.19
2023-05-11T04:15:15.483Z,21.19
2023-05-11T04:16:15.505Z,21.18
2023-05-11T04:17:15.465Z,21.18
2023-05-11T04:18:15.461Z,21.18
2023-05-11T04:19:15.449Z,21.18
2023-05-11T04:20:15.535Z,21.18
2023-05-11T04:21:15.466Z,21.18
2023-05-11T04:22:15.452Z,21.19
2023-05-11T04:23:14.449Z,21.17
2023-05-11T04:24:15.422Z,21.18
2023-05-11T04:25:14.431Z,21.18
2023-05-11T04:26:15.439Z,21.17
2023-05-11T04:27:15.447Z,21.17
2023-05-11T04:28:15.411Z,21.17
2023-05-11T04:29:15.419Z,21.17
2023-05-11T04:30:15.421Z,21.17
2023-05-11T04:31:15.443Z,21.17
2023-05-11T04:32:15.400Z,21.16
2023-05-11T04:33:15.416Z,21.17
2023-05-11T04:34:15.430Z,21.17
2023-05-11T04:35:15.437Z,21.16
2023-05-11T04:36:14.475Z,21.16
2023-05-11T04:37:14.450Z,21.16
2023-05-11T04:38:14.443Z,21.16
2023-05-11T04:39:15.443Z,21.16
2023-05-11T04:40:15.456Z,21.16
2023-05-11T04:41:14.450Z,21.16
2023-05-11T04:42:15.456Z,21.15
2023-05-11T04:43:15.476Z,21.16
2023-05-11T04:44:15.323Z,21.15
2023-05-11T04:45:14.452Z,21.15
2023-05-11T04:46:15.505Z,21.15
2023-05-11T04:47:15.442Z,21.15
2023-05-11T04:48:16.894Z,21.16
2023-05-11T04:49:14.426Z,21.15
2023-05-11T04:50:15.418Z,21.15
2023-05-11T04:51:15.415Z,21.15
2023-05-11T04:52:15.413Z,21.14
2023-05-11T04:53:15.449Z,21.14
2023-05-11T04:54:15.391Z,21.14
2023-05-11T04:55:14.383Z,21.15
2023-05-11T04:56:14.390Z,21.13
2023-05-11T04:57:15.386Z,21.14
2023-05-11T04:58:15.372Z,21.14
2023-05-11T04:59:15.383Z,21.14
2023-05-11T05:00:15.394Z,21.13
2023-05-11T05:01:15.395Z,21.14
2023-05-11T05:02:15.334Z,21.14
2023-05-11T05:03:15.408Z,21.14
2023-05-11T05:04:15.390Z,21.14
2023-05-11T05:05:14.352Z,21.14
2023-05-11T05:06:15.324Z,21.14
2023-05-11T05:07:14.325Z,21.14
2023-05-11T05:08:15.298Z,21.14
2023-05-11T05:09:15.288Z,21.14
2023-05-11T05:10:15.311Z,21.14
2023-05-11T05:11:14.317Z,21.14
2023-05-11T05:12:15.274Z,21.14
2023-05-11T05:13:14.281Z,21.14
2023-05-11T05:14:15.278Z,21.14
2023-05-11T05:15:15.292Z,21.14
2023-05-11T05:16:15.286Z,21.14
2023-05-11T05:17:15.309Z,21.14
2023-05-11T05:18:15.300Z,21.15
2023-05-11T05:19:15.238Z,21.14
2023-05-11T05:20:14.221Z,21.14
2023-05-11T05:21:15.222Z,21.14
2023-05-11T05:22:15.208Z,21.14
2023-05-11T05:23:14.202Z,21.15
2023-05-11T05:24:14.198Z,21.14
2023-05-11T05:25:15.170Z,21.14
2023-05-11T05:26:15.192Z,21.15
2023-05-11T05:27:15.209Z,21.15
2023-05-11T05:28:14.156Z,21.14
2023-05-11T05:29:14.171Z,21.14
2023-05-11T05:30:15.166Z,21.14
2023-05-11T05:31:15.193Z,21.12
2023-05-11T05:32:14.317Z,21.11
2023-05-11T05:33:14.223Z,21.06
2023-05-11T05:34:16.435Z,20.96
2023-05-11T05:35:14.468Z,20.84
2023-05-11T05:36:15.383Z,20.74
2023-05-11T05:37:15.402Z,20.63
2023-05-11T05:38:15.424Z,20.50
2023-05-11T05:39:15.710Z,20.39
2023-05-11T05:40:15.833Z,20.30
2023-05-11T05:41:15.464Z,20.26
2023-05-11T05:42:15.489Z,20.21
2023-05-11T05:43:14.691Z,20.18
2023-05-11T05:44:15.832Z,20.04
2023-05-11T05:45:15.099Z,19.94
2023-05-11T05:46:15.485Z,19.90
2023-05-11T05:47:15.896Z,19.94
2023-05-11T05:48:16.189Z,19.97
2023-05-11T05:49:14.990Z,19.95
2023-05-11T05:50:16.042Z,19.72
2023-05-11T05:51:16.060Z,19.49
2023-05-11T05:52:16.000Z,19.32
2023-05-11T05:53:15.852Z,19.07
2023-05-11T05:54:16.220Z,19.02
2023-05-11T05:55:15.832Z,19.12
2023-05-11T05:56:15.845Z,19.25
2023-05-11T05:57:16.078Z,19.41
2023-05-11T05:58:15.863Z,19.55
2023-05-11T05:59:15.914Z,19.70
2023-05-11T06:00:16.224Z,19.86
2023-05-11T06:01:15.939Z,20.03
2023-05-11T06:02:16.009Z,20.20
2023-05-11T06:03:16.345Z,20.32
2023-05-11T06:04:15.186Z,20.47
2023-05-11T06:05:16.113Z,20.61
2023-05-11T06:06:15.138Z,20.75
2023-05-11T06:07:16.168Z,20.87
2023-05-11T06:08:16.213Z,20.98
2023-05-11T06:09:16.190Z,21.08
2023-05-11T06:10:16.388Z,21.18
2023-05-11T06:11:16.329Z,21.27
2023-05-11T06:12:16.363Z,21.33
2023-05-11T06:13:16.406Z,21.40
2023-05-11T06:14:15.454Z,21.43
2023-05-11T06:15:16.506Z,21.46
2023-05-11T06:16:16.579Z,21.50
2023-05-11T06:17:16.589Z,21.54
2023-05-11T06:18:16.626Z,21.59
2023-05-11T06:19:15.821Z,21.62
2023-05-11T06:20:15.926Z,21.65
2023-05-11T06:21:15.711Z,21.69
2023-05-11T06:22:15.706Z,21.73
2023-05-11T06:23:15.712Z,21.76
2023-05-11T06:24:15.747Z,21.79
2023-05-11T06:25:16.777Z,21.83
2023-05-11T06:26:16.763Z,21.88
2023-05-11T06:27:18.039Z,21.92
2023-05-11T06:28:16.929Z,21.96
2023-05-11T06:29:15.905Z,22.00
2023-05-11T06:30:17.113Z,22.04
2023-05-11T06:31:16.971Z,22.07
2023-05-11T06:32:16.977Z,22.10
2023-05-11T06:33:16.991Z,22.11
2023-05-11T06:34:16.008Z,22.14
2023-05-11T06:35:17.090Z,22.17
2023-05-11T06:36:16.126Z,22.17
2023-05-11T06:37:16.183Z,22.20
2023-05-11T06:38:16.226Z,22.22
2023-05-11T06:39:17.275Z,22.23
2023-05-11T06:40:17.633Z,22.26
2023-05-11T06:41:17.400Z,22.27
2023-05-11T06:42:16.466Z,22.29
2023-05-11T06:43:16.525Z,22.31
2023-05-11T06:44:17.574Z,22.36
2023-05-11T06:45:17.673Z,22.39
2023-05-11T06:46:17.772Z,22.41
2023-05-11T06:47:16.746Z,22.43
2023-05-11T06:48:16.796Z,22.47
2023-05-11T06:49:17.868Z,22.48
2023-05-11T06:50:17.902Z,22.49
2023-05-11T06:51:16.968Z,22.53
2023-05-11T06:52:18.359Z,22.53
2023-05-11T06:53:18.132Z,22.53
2023-05-11T06:54:17.101Z,22.52
2023-05-11T06:55:17.123Z,22.47
2023-05-11T06:56:17.166Z,22.44
2023-05-11T06:57:18.361Z,22.40
2023-05-11T06:58:18.209Z,22.41
2023-05-11T06:59:18.212Z,22.46
2023-05-11T07:00:18.649Z,22.53
2023-05-11T07:01:17.390Z,22.57
2023-05-11T07:02:17.381Z,22.60
2023-05-11T07:03:18.473Z,22.64
2023-05-11T07:04:17.506Z,22.65
2023-05-11T07:05:18.541Z,22.65
2023-05-11T07:06:18.613Z,22.66
2023-05-11T07:07:18.640Z,22.67
2023-05-11T07:08:18.681Z,22.70
2023-05-11T07:09:17.731Z,22.72
2023-05-11T07:10:17.960Z,22.74
2023-05-11T07:11:17.825Z,22.75
2023-05-11T07:12:17.856Z,22.75
2023-05-11T07:13:17.911Z,22.76
2023-05-11T07:14:17.929Z,22.79
2023-05-11T07:15:17.978Z,22.81
2023-05-11T07:16:19.013Z,22.81
2023-05-11T07:17:18.020Z,22.83
2023-05-11T07:18:19.171Z,22.85
2023-05-11T07:19:18.094Z,22.85
2023-05-11T07:20:18.500Z,22.87
2023-05-11T07:21:19.127Z,22.88
2023-05-11T07:22:19.168Z,22.88
2023-05-11T07:23:19.163Z,22.88
2023-05-11T07:24:19.169Z,22.91
2023-05-11T07:25:18.182Z,22.91
2023-05-11T07:26:19.250Z,22.91
2023-05-11T07:27:19.231Z,22.92
2023-05-11T07:28:19.252Z,22.92
2023-05-11T07:29:18.273Z,22.93
2023-05-11T07:30:19.331Z,22.94
2023-05-11T07:31:18.336Z,22.95
2023-05-11T07:32:19.328Z,22.96
2023-05-11T07:33:18.340Z,22.97
2023-05-11T07:34:19.355Z,22.98
2023-05-11T07:35:19.820Z,22.99
2023-05-11T07:36:18.377Z,23.00
2023-05-11T07:37:18.409Z,23.01
2023-05-11T07:38:19.483Z,23.02
2023-05-11T07:39:19.433Z,23.03
2023-05-11T07:40:19.690Z,23.03
2023-05-11T07:41:19.479Z,23.06
2023-05-11T07:42:18.502Z,23.06
2023-05-11T07:43:19.516Z,23.07
2023-05-11T07:44:18.522Z,23.09
2023-05-11T07:45:18.533Z,23.08
2023-05-11T07:46:19.578Z,23.07
2023-05-11T07:47:19.901Z,23.08
2023-05-11T07:48:19.594Z,23.09
2023-05-11T07:49:27.987Z,23.08
2023-05-11T07:50:23.879Z,23.07
2023-05-11T07:51:19.604Z,23.04
2023-05-11T07:52:18.897Z,23.01
2023-05-11T07:53:19.594Z,22.98
2023-05-11T07:54:21.663Z,22.95
2023-05-11T07:55:19.961Z,22.91
2023-05-11T07:56:19.566Z,22.88
2023-05-11T07:57:18.567Z,22.86
2023-05-11T07:58:19.552Z,22.83
2023-05-11T07:59:19.546Z,22.80
2023-05-11T08:00:18.809Z,22.78
2023-05-11T08:01:18.536Z,22.75
2023-05-11T08:02:19.602Z,22.73
2023-05-11T08:03:18.579Z,22.71
2023-05-11T08:04:18.513Z,22.68
2023-05-11T08:05:19.976Z,22.66
2023-05-11T08:06:19.539Z,22.64
2023-05-11T08:07:18.509Z,22.63
2023-05-11T08:08:19.495Z,22.60
2023-05-11T08:09:18.501Z,22.59
2023-05-11T08:10:19.502Z,22.58
2023-05-11T08:11:18.515Z,22.56
2023-05-11T08:12:18.496Z,22.54
2023-05-11T08:13:20.127Z,22.53
2023-05-11T08:14:18.445Z,22.52
2023-05-11T08:15:19.637Z,22.51
2023-05-11T08:16:19.511Z,22.50
2023-05-11T08:17:19.449Z,22.49
2023-05-11T08:18:19.478Z,22.48
2023-05-11T08:19:19.440Z,22.48
2023-05-11T08:20:19.419Z,22.47
2023-05-11T08:21:19.408Z,22.45
2023-05-11T08:22:19.409Z,22.44
2023-05-11T08:23:19.395Z,22.43
2023-05-11T08:24:19.472Z,22.42
2023-05-11T08:25:19.654Z,22.41
2023-05-11T08:26:19.381Z,22.41
2023-05-11T08:27:19.369Z,22.40
2023-05-11T08:28:19.414Z,22.38
2023-05-11T08:29:18.397Z,22.37
2023-05-11T08:30:19.419Z,22.36
2023-05-11T08:31:19.470Z,22.35
2023-05-11T08:32:19.549Z,22.35
2023-05-11T08:34:20.040Z,22.31
2023-05-11T08:35:18.672Z,22.31
2023-05-11T08:36:19.496Z,22.28
2023-05-11T08:37:19.506Z,22.15
2023-05-11T08:38:18.503Z,21.80
2023-05-11T08:39:38.491Z,21.45
2023-05-11T08:40:19.501Z,21.13
2023-05-11T08:41:19.443Z,20.76
2023-05-11T08:42:18.474Z,20.43
2023-05-11T08:43:19.910Z,20.14
2023-05-11T08:44:19.432Z,20.01
2023-05-11T08:45:19.678Z,19.59
2023-05-11T08:46:19.568Z,19.07
2023-05-11T08:47:23.227Z,18.61
2023-05-11T08:48:19.417Z,18.23
2023-05-11T08:49:19.398Z,18.04
2023-05-11T08:50:19.365Z,18.16
2023-05-11T08:51:19.370Z,18.12
2023-05-11T08:52:19.366Z,17.96
2023-05-11T08:53:19.356Z,17.77
2023-05-11T08:54:19.342Z,17.99
2023-05-11T08:55:19.596Z,18.29
2023-05-11T08:56:18.344Z,18.61
2023-05-11T08:57:18.341Z,18.94
2023-05-11T08:58:19.653Z,19.26
2023-05-11T08:59:19.305Z,19.56
2023-05-11T09:00:18.328Z,19.79
2023-05-11T09:01:19.342Z,19.98
2023-05-11T09:02:19.338Z,20.18
2023-05-11T09:03:19.314Z,20.32
2023-05-11T09:04:19.345Z,20.48
2023-05-11T09:05:19.607Z,20.58
2023-05-11T09:06:19.366Z,20.67
2023-05-11T09:07:19.393Z,20.74
2023-05-11T09:08:19.386Z,20.81
2023-05-11T09:09:19.393Z,20.90
2023-05-11T09:10:18.384Z,20.95
2023-05-11T09:11:18.401Z,21.00
2023-05-11T09:12:19.382Z,21.04
2023-05-11T09:13:18.411Z,21.07
2023-05-11T09:14:18.488Z,21.11
2023-05-11T09:15:19.632Z,21.14
2023-05-11T09:16:35.726Z,21.17
2023-05-11T09:17:19.499Z,21.16
2023-05-11T09:18:19.528Z,21.18
2023-05-11T09:19:19.469Z,21.22
2023-05-11T09:20:18.660Z,21.26
2023-05-11T09:21:18.455Z,21.29
2023-05-11T09:22:19.485Z,21.32
2023-05-11T09:23:19.454Z,21.33
2023-05-11T09:24:19.432Z,21.35
2023-05-11T09:25:18.638Z,21.37
2023-05-11T09:26:19.415Z,21.39
2023-05-11T09:27:21.678Z,21.38
2023-05-11T09:29:19.397Z,21.39
2023-05-11T09:31:18.473Z,21.42
2023-05-11T09:32:19.406Z,21.43
2023-05-11T09:33:19.375Z,21.45
2023-05-11T09:34:19.372Z,21.44
2023-05-11T09:35:18.547Z,21.45
2023-05-11T09:36:19.340Z,21.47
2023-05-11T09:37:18.408Z,21.47
2023-05-11T09:38:19.328Z,21.47
2023-05-11T09:40:27.036Z,21.45
2023-05-11T09:41:19.366Z,21.49
2023-05-11T09:42:19.336Z,21.48
2023-05-11T09:43:18.302Z,21.51
2023-05-11T09:44:18.369Z,21.53
2023-05-11T09:45:18.502Z,21.54
2023-05-11T09:46:19.341Z,21.56
2023-05-11T09:47:19.366Z,21.55
2023-05-11T09:48:19.473Z,21.25
2023-05-11T09:49:19.252Z,20.88
2023-05-11T09:50:26.456Z,20.43
2023-05-11T09:51:19.258Z,20.28
2023-05-11T09:52:19.233Z,20.34
2023-05-11T09:53:18.230Z,20.48
2023-05-11T09:54:19.510Z,20.66
2023-05-11T09:55:19.470Z,20.83
2023-05-11T09:56:19.201Z,20.99
2023-05-11T09:57:19.196Z,21.14
2023-05-11T09:58:18.184Z,21.29
2023-05-11T09:59:18.210Z,21.41
2023-05-11T10:00:19.212Z,21.53
2023-05-11T10:01:19.226Z,21.64
2023-05-11T10:02:19.235Z,21.73
2023-05-11T10:03:19.331Z,21.81
2023-05-11T10:04:23.762Z,21.88
2023-05-11T10:05:19.341Z,21.95
2023-05-11T10:06:20.080Z,22.01
2023-05-11T10:07:18.115Z,22.08
2023-05-11T10:08:18.110Z,22.13
2023-05-11T10:09:18.140Z,22.17
2023-05-11T10:10:18.193Z,22.22
2023-05-11T10:11:19.289Z,22.27
2023-05-11T10:12:19.296Z,22.30
2023-05-11T10:13:19.354Z,22.36
2023-05-11T10:14:18.411Z,22.39
2023-05-11T10:15:19.644Z,22.43
2023-05-11T10:16:18.535Z,22.47
2023-05-11T10:17:19.559Z,22.50
2023-05-11T10:18:20.274Z,22.56
2023-05-11T10:19:19.636Z,22.57
2023-05-11T10:20:18.894Z,22.61
2023-05-11T10:21:19.665Z,22.66
2023-05-11T10:22:18.746Z,22.68
2023-05-11T10:23:19.755Z,22.72
2023-05-11T10:24:22.776Z,22.74
2023-05-11T10:25:18.764Z,22.76
2023-05-11T10:26:19.741Z,22.80
2023-05-11T10:27:18.752Z,22.81
2023-05-11T10:28:19.728Z,22.80
2023-05-11T10:29:18.730Z,22.83
2023-05-11T10:30:18.953Z,22.85
2023-05-11T10:31:19.723Z,22.89
2023-05-11T10:32:18.691Z,22.91
2023-05-11T10:33:19.700Z,22.93
2023-05-11T10:34:19.708Z,22.95
2023-05-11T10:35:19.679Z,22.96
2023-05-11T10:36:19.910Z,22.97
2023-05-11T10:37:19.673Z,22.99
2023-05-11T10:38:19.650Z,23.01
2023-05-11T10:39:19.666Z,23.02
2023-05-11T10:40:19.948Z,23.04
2023-05-11T10:41:19.641Z,23.05
2023-05-11T10:42:18.649Z,23.07
2023-05-11T10:43:19.609Z,23.08
2023-05-11T10:44:19.945Z,23.09
2023-05-11T10:45:18.615Z,23.08
2023-05-11T10:46:19.680Z,23.09
2023-05-11T10:47:18.612Z,23.10
2023-05-11T10:48:19.624Z,23.10
2023-05-11T10:49:18.964Z,23.11
2023-05-11T10:50:19.971Z,23.12
2023-05-11T10:51:19.559Z,23.12
2023-05-11T10:52:19.570Z,23.10
2023-05-11T10:53:19.575Z,23.09
2023-05-11T10:54:18.566Z,23.06
2023-05-11T10:55:18.895Z,23.04
2023-05-11T10:56:19.541Z,23.02
2023-05-11T10:57:18.523Z,22.99
2023-05-11T10:58:19.890Z,22.97
2023-05-11T10:59:18.688Z,22.94
2023-05-11T11:00:19.315Z,22.93
2023-05-11T11:01:19.591Z,22.90
2023-05-11T11:02:18.500Z,22.88
2023-05-11T11:03:19.501Z,22.85
2023-05-11T11:04:19.500Z,22.75
2023-05-11T11:05:19.735Z,22.48
2023-05-11T11:06:18.500Z,22.29
2023-05-11T11:07:19.500Z,22.19
2023-05-11T11:08:19.518Z,22.19
2023-05-11T11:09:18.456Z,22.24
2023-05-11T11:10:18.584Z,22.30
2023-05-11T11:11:19.434Z,22.35
2023-05-11T11:12:19.425Z,22.39
2023-05-11T11:13:18.427Z,22.42
2023-05-11T11:14:18.441Z,22.46
2023-05-11T11:15:18.640Z,22.48
2023-05-11T11:16:18.532Z,22.50
2023-05-11T11:17:19.751Z,22.53
2023-05-11T11:18:19.685Z,22.55
2023-05-11T11:19:19.709Z,22.56
2023-05-11T11:20:19.757Z,22.58
2023-05-11T11:21:18.821Z,22.59
2023-05-11T11:22:19.906Z,22.59
2023-05-11T11:23:19.943Z,22.61
2023-05-11T11:24:19.002Z,22.61
2023-05-11T11:25:19.291Z,22.63
2023-05-11T11:26:20.114Z,22.63
2023-05-11T11:27:20.156Z,22.64
2023-05-11T11:28:20.193Z,22.64
2023-05-11T11:29:19.245Z,22.64
2023-05-11T11:30:20.357Z,22.65
2023-05-11T11:31:20.396Z,22.64
2023-05-11T11:32:19.390Z,22.62
2023-05-11T11:33:20.428Z,22.60
2023-05-11T11:34:20.523Z,22.62
2023-05-11T11:35:20.556Z,22.64
2023-05-11T11:36:19.609Z,22.61
2023-05-11T11:37:20.659Z,22.48
2023-05-11T11:38:20.751Z,22.45
2023-05-11T11:39:19.993Z,22.40
2023-05-11T11:40:20.676Z,22.40
2023-05-11T11:41:19.662Z,22.40
2023-05-11T11:42:20.701Z,22.37
2023-05-11T11:43:19.693Z,22.37
2023-05-11T11:44:20.719Z,22.35
2023-05-11T11:45:19.835Z,22.35
2023-05-11T11:46:20.736Z,22.34
2023-05-11T11:47:19.744Z,22.32
2023-05-11T11:48:20.731Z,22.31
2023-05-11T11:49:19.755Z,22.29
2023-05-11T11:50:19.784Z,22.28
2023-05-11T11:51:20.781Z,22.28
2023-05-11T11:52:20.793Z,22.27
2023-05-11T11:53:20.819Z,22.26
2023-05-11T11:54:19.865Z,22.24
2023-05-11T11:55:20.860Z,22.24
2023-05-11T11:56:20.881Z,22.23
2023-05-11T11:57:19.897Z,22.21
2023-05-11T11:58:20.916Z,22.21
2023-05-11T11:59:20.939Z,22.20
2023-05-11T12:00:19.964Z,22.19
2023-05-11T12:01:19.995Z,22.18
2023-05-11T12:02:21.015Z,22.17
2023-05-11T12:03:20.208Z,22.16
2023-05-11T12:04:21.125Z,22.15
2023-05-11T12:05:20.628Z,22.15
2023-05-11T12:06:21.166Z,22.13
2023-05-11T12:07:21.206Z,22.13
2023-05-11T12:08:20.236Z,22.12
2023-05-11T12:09:21.335Z,22.12
2023-05-11T12:10:20.419Z,22.11
2023-05-11T12:11:20.368Z,22.11
2023-05-11T12:12:21.440Z,22.10
2023-05-11T12:13:20.475Z,22.10
2023-05-11T12:14:21.531Z,22.09
2023-05-11T12:15:20.720Z,22.09
2023-05-11T12:16:20.670Z,22.08
2023-05-11T12:17:21.687Z,22.07
2023-05-11T12:18:21.727Z,22.07
2023-05-11T12:19:20.765Z,22.07
2023-05-11T12:20:21.800Z,22.06
2023-05-11T12:21:21.800Z,22.06
2023-05-11T12:22:21.883Z,22.05
2023-05-11T12:23:20.898Z,22.01
2023-05-11T12:24:21.946Z,22.00
2023-05-11T12:25:22.516Z,22.00
2023-05-11T12:26:22.058Z,22.01
2023-05-11T12:27:22.108Z,22.00
2023-05-11T12:28:21.124Z,22.02
2023-05-11T12:29:22.182Z,22.04
2023-05-11T12:30:22.208Z,22.05
2023-05-11T12:31:22.289Z,22.05
2023-05-11T12:32:21.346Z,22.05
2023-05-11T12:33:21.571Z,22.06
2023-05-11T12:34:22.417Z,22.05
2023-05-11T12:35:21.461Z,22.05
2023-05-11T12:36:21.515Z,22.04
2023-05-11T12:37:22.554Z,22.04
2023-05-11T12:38:22.617Z,22.04
2023-05-11T12:39:22.651Z,22.03
2023-05-11T12:40:22.754Z,22.03
2023-05-11T12:41:22.753Z,22.03
2023-05-11T12:42:22.852Z,22.02
2023-05-11T12:43:22.869Z,22.01
2023-05-11T12:44:22.907Z,22.01
2023-05-11T12:45:22.963Z,22.01
2023-05-11T12:46:23.044Z,22.01
2023-05-11T12:47:23.081Z,22.01
2023-05-11T12:48:22.116Z,22.01
2023-05-11T12:50:22.171Z,22.00
2023-05-11T12:51:22.173Z,21.99
2023-05-11T12:52:22.171Z,22.00
2023-05-11T12:53:22.152Z,21.99
2023-05-11T12:54:23.158Z,21.99
2023-05-11T12:55:23.138Z,21.98
2023-05-11T12:56:23.115Z,21.98
2023-05-11T12:57:23.125Z,21.97